createdAt,value
2022-12-11T00:00:08.233Z,16.20
2022-12-11T00:05:10.150Z,16.10
2022-12-11T00:10:12.060Z,16.10
2022-12-11T00:15:13.847Z,16.20
2022-12-11T00:20:16.366Z,16.20
2022-12-11T00:25:18.030Z,16.20
2022-12-11T00:30:19.616Z,16.20
2022-12-11T00:35:21.429Z,16.30
2022-12-11T00:40:23.062Z,16.20
2022-12-11T00:45:24.709Z,16.20
2022-12-11T00:50:26.421Z,16.10
2022-12-11T00:55:31.121Z,16.10
2022-12-11T01:00:33.357Z,16.10
2022-12-11T01:05:35.456Z,16.10
2022-12-11T01:10:37.102Z,16.00
2022-12-11T01:15:41.769Z,16.00
2022-12-11T01:20:43.990Z,15.90
2022-12-11T01:25:45.589Z,15.90
2022-12-11T01:30:47.714Z,16.00
2022-12-11T01:35:49.558Z,16.10
2022-12-11T01:40:51.456Z,16.10
2022-12-11T01:45:53.223Z,16.20
2022-12-11T01:50:59.873Z,16.20
2022-12-11T01:56:02.628Z,16.20
2022-12-11T02:06:29.888Z,16.10
2022-12-11T02:11:54.536Z,16.10
2022-12-11T02:16:59.688Z,16.00
2022-12-11T02:22:06.116Z,16.00
2022-12-11T02:27:10.623Z,16.00
2022-12-11T02:32:21.023Z,16.00
2022-12-11T02:37:25.097Z,15.90
2022-12-11T02:42:30.603Z,15.90
2022-12-11T02:47:32.443Z,15.80
2022-12-11T02:52:34.710Z,15.80
2022-12-11T02:57:39.713Z,15.80
2022-12-11T03:02:42.257Z,15.80
2022-12-11T03:07:44.424Z,15.90
2022-12-11T03:12:53.024Z,16.00
2022-12-11T03:17:58.447Z,16.10
2022-12-11T03:23:07.867Z,16.10
2022-12-11T03:28:12.564Z,16.20
2022-12-11T03:33:19.046Z,16.20
2022-12-11T03:38:40.877Z,16.20
2022-12-11T03:43:42.855Z,16.10
2022-12-11T03:48:46.702Z,16.10
2022-12-11T03:53:48.416Z,16.10
2022-12-11T03:58:50.063Z,16.00
2022-12-11T04:03:51.866Z,16.00
2022-12-11T04:08:53.570Z,16.00
2022-12-11T04:14:13.626Z,15.90
2022-12-11T04:19:33.854Z,15.80
2022-12-11T04:24:35.865Z,15.80
2022-12-11T04:29:37.428Z,15.80
2022-12-11T04:34:40.683Z,15.80
2022-12-11T04:39:42.473Z,15.70
2022-12-11T04:44:44.331Z,15.70
2022-12-11T06:07:09.197Z,16.50
2022-12-11T06:12:10.717Z,16.80
2022-12-11T06:17:12.335Z,16.80
2022-12-11T06:22:14.004Z,16.90
2022-12-11T06:27:15.695Z,16.90
2022-12-11T06:32:17.362Z,16.90
2022-12-11T06:37:19.025Z,16.90
2022-12-11T06:42:20.698Z,17.00
2022-12-11T06:47:22.362Z,17.00
2022-12-11T06:52:24.858Z,17.10
2022-12-11T06:57:26.541Z,17.10
2022-12-11T07:02:28.287Z,17.00
2022-12-11T07:07:30.549Z,17.00
2022-12-11T07:12:32.342Z,17.00
2022-12-11T07:17:34.228Z,17.10
2022-12-11T07:22:35.958Z,17.20
2022-12-11T07:27:37.659Z,17.30
2022-12-11T07:32:39.459Z,17.30
2022-12-11T07:37:41.408Z,17.30
2022-12-11T07:42:46.320Z,17.20
2022-12-11T07:47:48.304Z,17.20
2022-12-11T07:52:49.947Z,17.10
2022-12-11T07:57:51.593Z,17.00
2022-12-11T08:02:53.255Z,16.90
2022-12-11T08:07:54.964Z,16.80
2022-12-11T08:12:57.221Z,16.70
2022-12-11T08:17:58.918Z,16.60
2022-12-11T08:23:00.666Z,16.60
2022-12-11T08:28:02.350Z,16.50
2022-12-11T08:33:03.988Z,16.50
2022-12-11T08:38:05.694Z,16.50
2022-12-11T08:43:07.464Z,16.50
2022-12-11T08:48:09.267Z,16.50
2022-12-11T08:53:10.951Z,16.50
2022-12-11T08:58:12.606Z,16.50
2022-12-11T09:03:14.340Z,16.50
2022-12-11T09:08:16.146Z,16.50
2022-12-11T09:13:17.999Z,16.40
2022-12-11T09:18:19.718Z,16.40
2022-12-11T09:23:21.506Z,16.40
2022-12-11T09:28:23.658Z,16.40
2022-12-11T09:33:25.375Z,16.40
2022-12-11T09:38:27.117Z,16.40
2022-12-11T09:43:34.993Z,16.30
2022-12-11T09:48:37.231Z,16.30
2022-12-11T09:53:39.099Z,16.30
2022-12-11T09:58:51.448Z,16.30
2022-12-11T10:03:59.302Z,16.30
2022-12-11T10:09:05.348Z,16.30
2022-12-11T10:14:16.472Z,16.20
2022-12-11T10:19:20.104Z,16.20
2022-12-11T10:25:05.653Z,16.30
2022-12-11T10:29:47.076Z,16.20
2022-12-11T10:34:49.809Z,16.20
2022-12-11T10:39:51.746Z,16.30
2022-12-11T10:44:57.826Z,16.20
2022-12-11T10:50:00.700Z,16.20
2022-12-11T10:55:04.188Z,16.30
2022-12-11T11:00:07.120Z,16.50
2022-12-11T11:05:32.448Z,16.70
2022-12-11T11:10:34.270Z,16.90
2022-12-11T11:15:35.945Z,17.00
2022-12-11T11:20:43.725Z,17.00
2022-12-11T11:25:55.731Z,17.00
2022-12-11T11:31:07.704Z,17.00
2022-12-11T11:36:20.360Z,16.90
2022-12-11T11:41:45.091Z,17.10
2022-12-11T11:46:54.933Z,17.40
2022-12-11T11:52:01.267Z,17.60
2022-12-11T11:57:06.996Z,17.60
2022-12-11T12:02:16.818Z,17.60
2022-12-11T12:07:27.530Z,17.60
2022-12-11T12:12:33.776Z,17.70
2022-12-11T12:17:53.614Z,17.80
2022-12-11T12:23:00.578Z,17.90
2022-12-11T12:28:20.931Z,17.80
2022-12-11T12:33:31.868Z,17.80
2022-12-11T12:38:33.383Z,17.80
2022-12-11T12:43:43.008Z,17.90
2022-12-11T12:48:45.185Z,18.00
2022-12-11T12:53:49.066Z,18.10
2022-12-11T12:58:50.642Z,18.00
2022-12-11T13:04:03.530Z,17.90
2022-12-11T13:09:23.985Z,17.80
2022-12-11T13:14:32.659Z,17.70
2022-12-11T13:19:40.680Z,17.60
2022-12-11T13:24:48.327Z,17.50
2022-12-11T13:29:49.964Z,17.50
2022-12-11T13:34:56.658Z,17.40
2022-12-11T13:39:58.607Z,17.40
2022-12-11T13:45:00.931Z,17.40
2022-12-11T13:50:14.105Z,17.40
2022-12-11T13:55:27.593Z,17.40
2022-12-11T14:00:32.731Z,17.50
2022-12-11T14:05:34.996Z,17.60
2022-12-11T14:10:37.082Z,17.80
2022-12-11T14:15:44.108Z,17.90
2022-12-11T14:20:45.930Z,17.90
2022-12-11T14:26:05.224Z,17.80
2022-12-11T14:31:07.947Z,17.70
2022-12-11T14:36:09.863Z,17.60
2022-12-11T14:41:31.730Z,17.50
2022-12-11T14:46:33.445Z,17.50
2022-12-11T14:51:37.048Z,17.60
2022-12-11T14:56:38.792Z,17.50
2022-12-11T15:01:40.424Z,17.50
2022-12-11T15:06:44.189Z,17.40
2022-12-11T15:11:46.291Z,17.40
2022-12-11T15:16:49.262Z,17.30
2022-12-11T15:21:51.414Z,17.30
2022-12-11T15:26:56.828Z,17.30
2022-12-11T15:32:18.516Z,17.30
2022-12-11T15:37:23.047Z,17.20
2022-12-11T15:42:42.778Z,17.20
2022-12-11T15:47:45.024Z,17.20
2022-12-11T15:52:47.563Z,17.40
2022-12-11T15:57:50.973Z,17.60
2022-12-11T16:02:52.589Z,17.80
2022-12-11T16:07:56.463Z,17.90
2022-12-11T16:12:59.757Z,18.00
2022-12-11T16:18:05.729Z,18.00
2022-12-11T16:23:07.738Z,17.90
2022-12-11T16:28:10.950Z,17.90
2022-12-11T16:33:13.525Z,17.80
2022-12-11T16:38:15.512Z,17.80
2022-12-11T16:43:17.047Z,17.90
2022-12-11T16:48:18.608Z,18.10
2022-12-11T16:53:20.374Z,18.10
2022-12-11T16:58:22.099Z,18.20
2022-12-11T17:03:23.784Z,18.40
2022-12-11T17:08:25.659Z,18.50
2022-12-11T17:13:30.588Z,18.60
2022-12-11T17:18:36.666Z,18.50
2022-12-11T17:23:38.657Z,18.40
2022-12-11T17:28:40.624Z,18.30
2022-12-11T17:33:42.462Z,18.20
2022-12-11T17:38:44.238Z,18.10
2022-12-11T17:43:45.937Z,18.00
2022-12-11T17:48:48.034Z,18.00
2022-12-11T17:53:50.144Z,17.90
2022-12-11T17:58:51.986Z,17.80
2022-12-11T18:03:53.900Z,17.60
2022-12-11T18:08:55.840Z,17.60
2022-12-11T18:13:57.564Z,17.50
2022-12-11T18:18:59.298Z,17.40
2022-12-11T18:24:01.218Z,17.30
2022-12-11T18:29:02.941Z,17.30
2022-12-11T18:34:06.080Z,17.20
2022-12-11T18:39:07.722Z,17.10
2022-12-11T18:44:10.105Z,17.10
2022-12-11T18:49:12.001Z,17.10
2022-12-11T18:54:13.703Z,17.00
2022-12-11T18:59:15.670Z,17.00
2022-12-11T19:04:17.462Z,16.90
2022-12-11T19:09:19.229Z,16.90
2022-12-11T19:14:21.110Z,16.90
2022-12-11T19:19:22.873Z,16.80
2022-12-11T19:24:25.043Z,16.70
2022-12-11T19:29:28.084Z,16.70
2022-12-11T19:34:29.847Z,16.60
2022-12-11T19:39:31.607Z,16.50
2022-12-11T19:44:33.236Z,16.50
2022-12-11T19:49:34.909Z,16.40
2022-12-11T19:54:36.796Z,16.30
2022-12-11T19:59:39.747Z,16.30
2022-12-11T20:04:41.657Z,16.30
2022-12-11T20:09:43.334Z,16.30
2022-12-11T20:14:45.511Z,16.40
2022-12-11T20:19:47.217Z,16.50
2022-12-11T20:24:48.836Z,16.60
2022-12-11T20:29:50.703Z,16.60
2022-12-11T20:34:55.231Z,16.60
2022-12-11T20:39:56.952Z,16.50
2022-12-11T20:44:58.648Z,16.50
2022-12-11T20:50:00.489Z,16.50
2022-12-11T20:55:02.149Z,16.40
2022-12-11T21:00:05.453Z,16.40
2022-12-11T21:05:07.288Z,16.30
2022-12-11T21:10:09.567Z,16.30
2022-12-11T21:15:11.535Z,16.20
2022-12-11T21:20:13.395Z,16.20
2022-12-11T21:25:15.476Z,16.10
2022-12-11T21:30:17.673Z,16.10
2022-12-11T21:35:19.382Z,16.00
2022-12-11T21:40:23.135Z,16.00
2022-12-11T21:45:59.769Z,16.00
2022-12-11T21:50:46.896Z,15.90
2022-12-11T21:55:48.669Z,15.90
2022-12-11T22:00:50.513Z,15.90
2022-12-11T22:05:52.220Z,15.80
2022-12-11T22:10:53.926Z,15.90
2022-12-11T22:15:55.723Z,15.90
2022-12-11T22:20:57.891Z,16.00
2022-12-11T22:25:59.684Z,16.00
2022-12-11T22:31:01.852Z,16.10
2022-12-11T22:36:03.763Z,16.10
2022-12-11T22:41:13.520Z,16.00
2022-12-11T22:46:18.792Z,16.00
2022-12-11T22:51:20.995Z,16.00
2022-12-11T22:56:22.618Z,16.00
2022-12-11T23:01:25.059Z,15.90
2022-12-11T23:06:26.806Z,15.90
2022-12-11T23:11:29.499Z,15.90
2022-12-11T23:16:31.511Z,15.90
2022-12-11T23:21:33.577Z,15.80
2022-12-11T23:26:35.502Z,15.90
2022-12-11T23:31:37.266Z,15.90
2022-12-11T23:36:38.941Z,16.00
2022-12-11T23:41:40.637Z,16.10
2022-12-11T23:46:44.988Z,16.20
2022-12-11T23:51:47.127Z,16.20
2022-12-11T23:56:48.830Z,16.20
